createdAt,value
2019-05-14T00:01:54.123Z,99.90
2019-05-14T00:04:27.945Z,99.90
2019-05-14T00:07:02.494Z,99.90
2019-05-14T00:09:35.256Z,99.90
2019-05-14T00:12:08.004Z,99.90
2019-05-14T00:14:44.125Z,99.90
2019-05-14T00:17:16.873Z,99.90
2019-05-14T00:20:05.993Z,99.90
2019-05-14T00:22:24.443Z,99.90
2019-05-14T00:24:57.234Z,99.90
2019-05-14T00:27:31.237Z,99.90
2019-05-14T00:30:05.353Z,99.90
2019-05-14T00:32:41.469Z,99.90
2019-05-14T00:35:15.173Z,99.90
2019-05-14T00:37:47.859Z,99.90
2019-05-14T00:40:22.060Z,99.90
2019-05-14T00:42:54.864Z,99.90
2019-05-14T00:45:27.781Z,99.90
2019-05-14T00:48:01.678Z,99.90
2019-05-14T00:50:34.556Z,99.90
2019-05-14T00:53:07.303Z,99.90
2019-05-14T00:55:41.952Z,99.90
2019-05-14T00:58:14.708Z,99.90
2019-05-14T01:00:47.340Z,99.90
2019-05-14T01:03:22.318Z,99.90
2019-05-14T01:05:56.024Z,99.90
2019-05-14T01:08:28.709Z,99.90
2019-05-14T01:11:01.749Z,99.90
2019-05-14T01:13:35.683Z,99.90
2019-05-14T01:16:08.350Z,99.90
2019-05-14T01:18:41.507Z,99.90
2019-05-14T01:21:14.430Z,99.90
2019-05-14T01:23:47.136Z,99.90
2019-05-14T01:26:21.806Z,99.90
2019-05-14T01:28:54.361Z,99.90
2019-05-14T01:31:27.139Z,99.90
2019-05-14T01:34:01.974Z,99.90
2019-05-14T01:36:35.731Z,99.90
2019-05-14T01:39:08.550Z,99.90
2019-05-14T01:41:42.367Z,99.90
2019-05-14T01:44:15.269Z,99.90
2019-05-14T01:46:47.985Z,99.90
2019-05-14T01:49:22.159Z,99.90
2019-05-14T01:51:54.984Z,99.90
2019-05-14T01:54:27.755Z,99.90
2019-05-14T01:57:02.087Z,99.90
2019-05-14T01:59:35.230Z,99.90
2019-05-14T02:02:07.967Z,99.90
2019-05-14T02:04:42.649Z,99.90
2019-05-14T02:07:16.111Z,99.90
2019-05-14T02:09:49.087Z,99.90
2019-05-14T02:12:22.950Z,99.90
2019-05-14T02:14:55.581Z,99.90
2019-05-14T02:17:31.770Z,99.90
2019-05-14T02:20:05.354Z,99.90
2019-05-14T02:22:37.985Z,99.90
2019-05-14T02:25:12.341Z,99.90
2019-05-14T02:27:44.981Z,99.90
2019-05-14T02:30:20.271Z,99.90
2019-05-14T02:32:53.516Z,99.90
2019-05-14T02:35:29.816Z,99.90
2019-05-14T02:38:02.523Z,99.90
2019-05-14T02:40:35.314Z,99.90
2019-05-14T02:43:09.657Z,99.90
2019-05-14T02:46:00.743Z,99.90
2019-05-14T02:48:20.210Z,99.90
2019-05-14T02:50:52.973Z,99.90
2019-05-14T02:53:25.596Z,99.90
2019-05-14T02:55:59.913Z,99.90
2019-05-14T02:58:32.619Z,99.90
2019-05-14T03:01:05.409Z,99.90
2019-05-14T03:03:40.084Z,99.90
2019-05-14T03:06:12.701Z,99.90
2019-05-14T03:08:45.286Z,99.90
2019-05-14T03:11:20.108Z,99.90
2019-05-14T03:13:54.101Z,99.90
2019-05-14T03:16:32.621Z,99.90
2019-05-14T03:19:01.422Z,99.90
2019-05-14T03:21:34.241Z,99.90
2019-05-14T03:24:09.388Z,99.90
2019-05-14T03:26:41.531Z,99.90
2019-05-14T03:29:14.348Z,99.90
2019-05-14T03:31:51.954Z,99.90
2019-05-14T03:34:22.625Z,99.90
2019-05-14T03:36:55.725Z,99.90
2019-05-14T03:39:29.601Z,99.90
2019-05-14T03:42:02.564Z,99.90
2019-05-14T03:44:35.230Z,99.90
2019-05-14T03:47:10.256Z,99.90
2019-05-14T03:49:43.651Z,99.90
2019-05-14T03:52:19.628Z,99.90
2019-05-14T03:54:50.983Z,99.90
2019-05-14T03:57:25.113Z,99.90
2019-05-14T03:59:59.730Z,99.90
2019-05-14T04:02:32.751Z,99.90
2019-05-14T04:05:09.179Z,99.90
2019-05-14T04:07:41.465Z,99.90
2019-05-14T04:10:14.272Z,99.90
2019-05-14T04:12:49.115Z,99.90
2019-05-14T04:15:25.737Z,99.90
2019-05-14T04:17:59.722Z,99.90
2019-05-14T04:20:34.190Z,99.90
2019-05-14T04:23:09.443Z,99.90
2019-05-14T04:25:42.335Z,99.90
2019-05-14T04:28:22.536Z,99.90
2019-05-14T04:30:55.819Z,99.90
2019-05-14T04:33:30.273Z,99.90
2019-05-14T04:36:03.349Z,99.90
2019-05-14T04:38:36.050Z,99.90
2019-05-14T04:41:10.349Z,99.90
2019-05-14T04:43:44.379Z,99.90
2019-05-14T04:46:19.899Z,99.90
2019-05-14T04:48:51.704Z,99.90
2019-05-14T04:51:24.359Z,99.90
2019-05-14T04:53:59.820Z,99.90
2019-05-14T04:56:31.764Z,99.90
2019-05-14T04:59:04.672Z,99.90
2019-05-14T05:01:40.213Z,99.90
2019-05-14T05:04:11.920Z,99.90
2019-05-14T05:06:44.621Z,99.90
2019-05-14T05:09:20.002Z,99.90
2019-05-14T05:11:52.049Z,99.90
2019-05-14T05:14:25.934Z,99.90
2019-05-14T05:16:59.649Z,99.90
2019-05-14T05:19:32.656Z,99.90
2019-05-14T05:22:05.384Z,99.90
2019-05-14T05:24:38.251Z,99.90
2019-05-14T05:27:11.100Z,99.90
2019-05-14T05:29:43.807Z,99.90
2019-05-14T05:32:19.187Z,99.90
2019-05-14T05:34:51.083Z,99.90
2019-05-14T05:37:24.204Z,99.90
2019-05-14T05:39:58.398Z,99.90
2019-05-14T05:42:31.199Z,99.90
2019-05-14T05:45:04.552Z,99.90
2019-05-14T05:47:39.086Z,99.90
2019-05-14T05:50:12.144Z,99.90
2019-05-14T05:52:44.818Z,99.90
2019-05-14T05:55:19.218Z,99.90
2019-05-14T05:57:52.073Z,99.90
2019-05-14T06:00:35.931Z,99.90
2019-05-14T06:03:10.853Z,99.90
2019-05-14T06:05:43.278Z,99.90
2019-05-14T06:08:15.974Z,99.90
2019-05-14T06:10:49.096Z,99.90
2019-05-14T06:13:22.052Z,99.90
2019-05-14T06:15:54.800Z,99.90
2019-05-14T06:18:28.531Z,99.90
2019-05-14T06:21:01.594Z,99.90
2019-05-14T06:23:34.336Z,99.90
2019-05-14T06:26:11.495Z,99.90
2019-05-14T06:28:41.666Z,99.90
2019-05-14T06:31:14.366Z,99.90
2019-05-14T06:33:48.741Z,99.90
2019-05-14T06:36:21.795Z,99.90
2019-05-14T06:38:54.518Z,99.90
2019-05-14T06:41:28.350Z,99.90
2019-05-14T06:44:01.401Z,99.90
2019-05-14T06:46:34.155Z,99.90
2019-05-14T06:49:09.114Z,99.90
2019-05-14T06:51:41.508Z,99.90
2019-05-14T06:54:14.088Z,99.90
2019-05-14T06:56:48.817Z,99.90
2019-05-14T06:59:21.341Z,99.90
2019-05-14T07:01:54.022Z,99.90
2019-05-14T07:04:28.866Z,99.90
2019-05-14T07:07:02.496Z,99.90
2019-05-14T07:09:35.300Z,99.90
2019-05-14T07:12:09.103Z,99.90
2019-05-14T07:14:42.356Z,99.90
2019-05-14T07:17:15.210Z,99.90
2019-05-14T07:19:49.082Z,99.90
2019-05-14T07:22:23.931Z,99.90
2019-05-14T07:24:58.708Z,99.90
2019-05-14T07:27:31.194Z,99.90
2019-05-14T07:30:05.065Z,99.90
2019-05-14T07:32:39.498Z,99.90
2019-05-14T07:35:13.731Z,99.90
2019-05-14T07:37:48.728Z,99.90
2019-05-14T07:40:20.921Z,99.90
2019-05-14T07:42:53.727Z,99.90
2019-05-14T07:45:28.607Z,99.90
2019-05-14T07:48:00.964Z,99.90
2019-05-14T07:50:33.519Z,99.90
2019-05-14T07:53:08.444Z,99.90
2019-05-14T07:55:40.881Z,99.90
2019-05-14T07:58:13.681Z,99.90
2019-05-14T08:00:48.982Z,99.90
2019-05-14T08:03:20.994Z,99.90
2019-05-14T08:05:53.875Z,99.90
2019-05-14T08:08:29.067Z,99.90
2019-05-14T08:11:01.125Z,99.90
2019-05-14T08:13:33.889Z,99.90
2019-05-14T08:16:08.761Z,99.90
2019-05-14T08:18:41.327Z,99.90
2019-05-14T08:21:13.961Z,99.60
2019-05-14T08:23:48.141Z,99.90
2019-05-14T08:26:21.018Z,99.90
2019-05-14T08:28:53.679Z,98.30
2019-05-14T08:31:29.044Z,95.20
2019-05-14T08:34:04.842Z,92.70
2019-05-14T08:36:37.811Z,93.60
2019-05-14T08:39:10.137Z,94.20
2019-05-14T08:41:42.685Z,96.00
2019-05-14T08:44:15.342Z,92.70
2019-05-14T08:46:48.624Z,91.30
2019-05-14T08:49:37.207Z,91.90
2019-05-14T08:51:56.065Z,92.80
2019-05-14T08:54:28.865Z,92.50
2019-05-14T08:57:01.671Z,92.70
2019-05-14T08:59:34.349Z,93.70
2019-05-14T09:02:10.440Z,90.30
2019-05-14T09:04:43.377Z,85.60
2019-05-14T09:07:18.368Z,79.80
2019-05-14T09:09:50.673Z,81.80
2019-05-14T09:12:23.294Z,74.40
2019-05-14T09:14:58.692Z,75.00
2019-05-14T09:17:30.670Z,78.20
2019-05-14T09:20:07.108Z,77.30
2019-05-14T09:22:39.965Z,75.40
2019-05-14T09:25:13.143Z,73.40
2019-05-14T09:27:49.258Z,64.90
2019-05-14T09:30:22.983Z,58.60
2019-05-14T09:32:55.776Z,59.90
2019-05-14T09:35:29.251Z,59.40
2019-05-14T09:38:02.144Z,61.00
2019-05-14T09:40:34.859Z,60.80
2019-05-14T09:43:09.453Z,63.10
2019-05-14T09:45:42.319Z,59.90
2019-05-14T09:48:15.166Z,57.50
2019-05-14T09:50:49.797Z,56.10
2019-05-14T09:53:22.558Z,56.60
2019-05-14T09:59:28.011Z,56.50
2019-05-14T10:02:01.107Z,57.40
2019-05-14T10:04:39.223Z,53.90
2019-05-14T10:07:15.471Z,54.60
2019-05-14T10:09:49.074Z,51.90
2019-05-14T10:12:21.671Z,50.80
2019-05-14T10:14:54.431Z,51.80
2019-05-14T10:17:29.032Z,50.00
2019-05-14T10:20:01.753Z,49.30
2019-05-14T10:22:35.506Z,48.00
2019-05-14T10:25:09.295Z,46.60
2019-05-14T10:27:42.175Z,48.70
2019-05-14T10:30:15.185Z,47.60
2019-05-14T10:32:49.200Z,47.10
2019-05-14T10:35:22.139Z,48.50
2019-05-14T10:37:55.121Z,46.50
2019-05-14T10:40:29.229Z,47.30
2019-05-14T10:43:02.365Z,45.80
2019-05-14T10:45:35.164Z,48.10
2019-05-14T10:48:09.691Z,49.30
2019-05-14T10:50:56.373Z,50.90
2019-05-14T10:53:20.356Z,51.50
2019-05-14T10:55:52.599Z,50.30
2019-05-14T10:58:25.427Z,53.10
2019-05-14T11:00:58.933Z,52.60
2019-05-14T11:03:31.922Z,53.70
2019-05-14T11:06:05.623Z,54.50
2019-05-14T11:08:38.872Z,55.20
2019-05-14T11:11:13.462Z,55.00
2019-05-14T11:13:48.089Z,54.30
2019-05-14T11:16:22.252Z,57.00
2019-05-14T11:18:57.366Z,49.60
2019-05-14T11:21:30.328Z,49.00
2019-05-14T11:24:03.294Z,48.00
2019-05-14T11:26:38.887Z,47.60
2019-05-14T11:29:10.517Z,48.20
2019-05-14T11:31:43.208Z,45.80
2019-05-14T11:34:15.874Z,44.30
2019-05-14T11:36:49.664Z,43.70
2019-05-14T11:39:22.653Z,45.70
2019-05-14T11:41:55.238Z,47.20
2019-05-14T11:44:28.596Z,46.20
2019-05-14T11:47:02.710Z,48.40
2019-05-14T11:49:35.634Z,49.50
2019-05-14T11:52:11.504Z,49.10
2019-05-14T11:54:43.159Z,42.70
2019-05-14T11:57:15.893Z,45.50
2019-05-14T11:59:48.937Z,47.90
2019-05-14T12:02:22.817Z,48.50
2019-05-14T12:04:55.519Z,47.10
2019-05-14T12:07:28.278Z,45.60
2019-05-14T12:10:01.048Z,44.60
2019-05-14T12:12:35.245Z,42.30
2019-05-14T12:15:09.420Z,42.20
2019-05-14T12:17:42.266Z,41.50
2019-05-14T12:20:16.094Z,43.00
2019-05-14T12:22:48.961Z,43.70
2019-05-14T12:25:21.808Z,39.50
2019-05-14T12:27:54.504Z,41.00
2019-05-14T12:30:28.614Z,41.30
2019-05-14T12:33:01.837Z,42.20
2019-05-14T12:35:34.645Z,43.10
2019-05-14T12:38:09.886Z,42.20
2019-05-14T12:40:43.530Z,44.20
2019-05-14T12:43:18.614Z,45.00
2019-05-14T12:45:50.696Z,45.90
2019-05-14T12:48:23.456Z,43.60
2019-05-14T12:50:59.491Z,40.80
2019-05-14T12:53:31.789Z,40.00
2019-05-14T12:56:04.567Z,39.50
2019-05-14T12:58:42.831Z,40.90
2019-05-14T13:01:11.987Z,40.30
2019-05-14T13:03:48.347Z,40.80
2019-05-14T13:06:21.023Z,42.50
2019-05-14T13:08:53.779Z,43.30
2019-05-14T13:11:26.526Z,43.90
2019-05-14T13:13:59.422Z,45.60
2019-05-14T13:16:32.371Z,46.00
2019-05-14T13:19:05.161Z,46.50
2019-05-14T13:21:38.899Z,41.90
2019-05-14T13:24:11.910Z,42.70
2019-05-14T13:26:44.659Z,39.60
2019-05-14T13:29:19.388Z,40.10
2019-05-14T13:31:52.134Z,41.50
2019-05-14T13:34:24.795Z,41.20
2019-05-14T13:36:59.585Z,40.10
2019-05-14T13:39:32.029Z,38.50
2019-05-14T13:42:04.869Z,39.40
2019-05-14T13:44:38.518Z,38.40
2019-05-14T13:47:11.286Z,38.20
2019-05-14T13:49:43.871Z,36.90
2019-05-14T13:52:18.695Z,36.80
2019-05-14T13:54:51.372Z,36.50
2019-05-14T13:57:24.175Z,35.70
2019-05-14T13:59:58.889Z,35.80
2019-05-14T14:02:31.646Z,37.90
2019-05-14T14:05:05.184Z,36.70
2019-05-14T14:07:39.496Z,35.90
2019-05-14T14:10:14.069Z,35.20
2019-05-14T14:12:49.553Z,35.20
2019-05-14T14:15:24.029Z,37.30
2019-05-14T14:17:56.957Z,39.40
2019-05-14T14:20:29.939Z,42.10
2019-05-14T14:23:17.484Z,43.70
2019-05-14T14:25:39.496Z,42.50
2019-05-14T14:28:11.926Z,40.00
2019-05-14T14:30:45.769Z,37.10
2019-05-14T14:33:19.773Z,36.30
2019-05-14T14:35:52.563Z,35.90
2019-05-14T14:38:25.540Z,36.80
2019-05-14T14:40:59.470Z,39.20
2019-05-14T14:43:32.333Z,40.20
2019-05-14T14:46:11.209Z,41.60
2019-05-14T14:48:39.833Z,40.70
2019-05-14T14:51:12.680Z,39.60
2019-05-14T14:53:58.326Z,39.00
2019-05-14T14:56:20.058Z,37.30
2019-05-14T14:58:52.849Z,36.30
2019-05-14T15:01:30.052Z,37.60
2019-05-14T15:04:03.975Z,39.70
2019-05-14T15:06:39.771Z,39.30
2019-05-14T15:09:12.232Z,38.70
2019-05-14T15:11:44.931Z,37.60
2019-05-14T15:14:20.145Z,36.30
2019-05-14T15:16:52.443Z,34.90
2019-05-14T15:19:25.430Z,34.10
2019-05-14T15:21:59.408Z,33.70
2019-05-14T15:24:32.205Z,34.50
2019-05-14T15:27:09.398Z,36.10
2019-05-14T15:29:42.803Z,36.50
2019-05-14T15:32:14.409Z,35.50
2019-05-14T15:35:00.092Z,35.90
2019-05-14T15:37:32.943Z,35.80
2019-05-14T15:40:07.284Z,34.20
2019-05-14T15:42:39.930Z,33.10
2019-05-14T15:45:12.704Z,33.30
2019-05-14T15:47:45.417Z,33.60
2019-05-14T15:50:20.245Z,33.70
2019-05-14T15:52:53.092Z,33.60
2019-05-14T15:55:28.845Z,34.70
2019-05-14T15:58:03.546Z,35.00
2019-05-14T16:00:38.498Z,36.40
2019-05-14T16:03:11.108Z,36.40
2019-05-14T16:05:43.872Z,36.00
2019-05-14T16:08:18.838Z,36.40
2019-05-14T16:10:51.376Z,34.80
2019-05-14T16:13:24.053Z,33.50
2019-05-14T16:15:56.745Z,33.50
2019-05-14T16:18:29.638Z,34.80
2019-05-14T16:21:03.417Z,35.30
2019-05-14T16:23:38.602Z,35.00
2019-05-14T16:26:11.118Z,34.30
2019-05-14T16:28:43.930Z,34.10
2019-05-14T16:31:18.411Z,35.40
2019-05-14T16:33:52.653Z,35.00
2019-05-14T16:36:25.381Z,35.60
2019-05-14T16:38:58.598Z,36.70
2019-05-14T16:41:31.564Z,36.80
2019-05-14T16:44:05.394Z,36.60
2019-05-14T16:46:38.603Z,35.80
2019-05-14T16:49:11.502Z,36.80
2019-05-14T16:51:44.421Z,35.80
2019-05-14T16:54:18.401Z,37.10
2019-05-14T16:56:51.207Z,37.50
2019-05-14T16:59:24.004Z,37.30
2019-05-14T17:01:58.501Z,37.90
2019-05-14T17:04:31.279Z,36.20
2019-05-14T17:07:04.052Z,35.40
2019-05-14T17:09:38.503Z,35.70
2019-05-14T17:12:14.292Z,37.20
2019-05-14T17:14:47.319Z,37.40
2019-05-14T17:17:20.212Z,37.50
2019-05-14T17:19:52.947Z,37.50
2019-05-14T17:22:30.787Z,37.60
2019-05-14T17:25:02.718Z,37.30
2019-05-14T17:27:39.460Z,37.20
2019-05-14T17:30:12.472Z,37.90
2019-05-14T17:32:45.242Z,38.10
2019-05-14T17:35:19.618Z,38.30
2019-05-14T17:37:52.588Z,39.50
2019-05-14T17:40:25.317Z,39.70
2019-05-14T17:42:59.227Z,40.30
2019-05-14T17:45:32.197Z,41.00
2019-05-14T17:48:05.363Z,41.60
2019-05-14T17:50:38.586Z,42.10
2019-05-14T17:53:11.516Z,41.90
2019-05-14T17:55:47.536Z,41.50
2019-05-14T17:58:20.099Z,40.10
2019-05-14T18:00:52.838Z,40.30
2019-05-14T18:03:29.038Z,41.20
2019-05-14T18:06:02.138Z,42.00
2019-05-14T18:08:35.126Z,42.40
2019-05-14T18:11:08.793Z,42.40
2019-05-14T18:13:41.675Z,42.00
2019-05-14T18:16:15.672Z,41.80
2019-05-14T18:18:49.473Z,42.50
2019-05-14T18:21:22.620Z,42.70
2019-05-14T18:23:55.383Z,43.20
2019-05-14T18:26:29.081Z,43.40
2019-05-14T18:29:04.451Z,44.10
2019-05-14T18:31:43.109Z,44.70
2019-05-14T18:34:11.212Z,45.50
2019-05-14T18:36:43.975Z,46.70
2019-05-14T18:39:20.780Z,47.50
2019-05-14T18:41:52.428Z,48.40
2019-05-14T18:44:25.173Z,49.60
2019-05-14T18:46:59.341Z,50.60
2019-05-14T18:49:32.346Z,51.10
2019-05-14T18:52:05.074Z,52.00
2019-05-14T18:54:38.790Z,52.70
2019-05-14T18:57:12.202Z,53.80
2019-05-14T18:59:45.402Z,54.70
2019-05-14T19:02:18.520Z,55.20
2019-05-14T19:04:51.712Z,56.40
2019-05-14T19:07:28.734Z,57.70
2019-05-14T19:10:03.161Z,57.90
2019-05-14T19:12:38.707Z,59.00
2019-05-14T19:15:12.134Z,60.10
2019-05-14T19:17:44.932Z,61.00
2019-05-14T19:20:19.235Z,61.90
2019-05-14T19:22:52.252Z,64.10
2019-05-14T19:25:25.419Z,66.50
2019-05-14T19:27:58.408Z,67.00
2019-05-14T19:30:32.274Z,69.20
2019-05-14T19:33:05.058Z,70.60
2019-05-14T19:35:39.422Z,70.40
2019-05-14T19:38:12.485Z,72.40
2019-05-14T19:40:48.311Z,74.30
2019-05-14T19:43:20.895Z,74.20
2019-05-14T19:45:55.505Z,75.00
2019-05-14T19:48:30.512Z,75.20
2019-05-14T19:51:02.959Z,76.30
2019-05-14T19:53:35.750Z,78.00
2019-05-14T19:56:09.772Z,79.60
2019-05-14T19:58:42.730Z,79.00
2019-05-14T20:01:15.581Z,79.90
2019-05-14T20:03:48.345Z,80.20
2019-05-14T20:06:22.186Z,80.70
2019-05-14T20:08:54.950Z,82.20
2019-05-14T20:11:29.018Z,83.30
2019-05-14T20:14:01.914Z,83.10
2019-05-14T20:16:34.640Z,84.10
2019-05-14T20:19:08.826Z,85.60
2019-05-14T20:21:41.653Z,86.70
2019-05-14T20:24:14.543Z,85.90
2019-05-14T20:27:03.514Z,87.10
2019-05-14T20:29:23.842Z,88.10
2019-05-14T20:31:59.455Z,89.50
2019-05-14T20:34:31.259Z,90.80
2019-05-14T20:37:05.092Z,91.00
2019-05-14T20:39:39.775Z,91.50
2019-05-14T20:42:12.526Z,92.10
2019-05-14T20:44:45.278Z,92.40
2019-05-14T20:47:19.887Z,93.40
2019-05-14T20:49:52.664Z,94.20
2019-05-14T20:52:25.341Z,95.10
2019-05-14T20:54:58.390Z,95.10
2019-05-14T20:57:33.461Z,96.20
2019-05-14T21:00:08.162Z,97.90
2019-05-14T21:02:41.156Z,97.40
2019-05-14T21:05:14.069Z,99.30
2019-05-14T21:07:49.148Z,99.90
2019-05-14T21:10:21.620Z,99.60
2019-05-14T21:12:58.083Z,98.70
2019-05-14T21:15:30.780Z,99.00
2019-05-14T21:18:03.531Z,99.70
2019-05-14T21:20:36.238Z,99.90
2019-05-14T21:23:09.096Z,99.90
2019-05-14T21:25:42.046Z,99.90
2019-05-14T21:28:14.769Z,99.90
2019-05-14T21:30:48.525Z,99.90
2019-05-14T21:33:21.564Z,99.90
2019-05-14T21:35:54.332Z,99.90
2019-05-14T21:38:28.653Z,99.90
2019-05-14T21:41:01.610Z,99.90
2019-05-14T21:43:34.421Z,99.90
2019-05-14T21:46:08.141Z,99.90
2019-05-14T21:48:41.990Z,99.90
2019-05-14T21:51:14.724Z,99.90
2019-05-14T21:53:48.305Z,99.90
2019-05-14T21:56:21.853Z,99.90
2019-05-14T21:58:54.807Z,99.90
2019-05-14T22:01:30.978Z,99.90
2019-05-14T22:04:03.063Z,99.90
2019-05-14T22:06:37.826Z,99.90
2019-05-14T22:09:11.676Z,99.90
2019-05-14T22:11:44.477Z,99.90
2019-05-14T22:14:18.782Z,99.90
2019-05-14T22:16:51.594Z,99.90
2019-05-14T22:19:24.348Z,99.90
2019-05-14T22:21:58.668Z,99.90
2019-05-14T22:24:31.471Z,99.90
2019-05-14T22:27:05.206Z,99.90
2019-05-14T22:29:39.634Z,99.90
2019-05-14T22:32:12.406Z,99.90
2019-05-14T22:34:45.172Z,99.90
2019-05-14T22:37:19.957Z,99.90
2019-05-14T22:39:52.502Z,99.90
2019-05-14T22:42:25.246Z,99.90
2019-05-14T22:44:58.425Z,99.90
2019-05-14T22:47:31.323Z,99.90
2019-05-14T22:50:05.653Z,99.90
2019-05-14T22:52:38.820Z,99.90
2019-05-14T22:55:12.327Z,99.90
2019-05-14T22:57:44.961Z,99.90
2019-05-14T23:00:20.724Z,99.90
2019-05-14T23:02:52.776Z,99.90
2019-05-14T23:05:25.382Z,99.90
2019-05-14T23:08:01.053Z,99.90
2019-05-14T23:10:33.681Z,99.90
2019-05-14T23:13:09.399Z,99.90
2019-05-14T23:15:42.290Z,99.90
2019-05-14T23:18:14.948Z,99.90
2019-05-14T23:20:49.403Z,99.90
2019-05-14T23:23:22.210Z,99.90
2019-05-14T23:25:58.903Z,99.90
2019-05-14T23:28:42.593Z,99.90
2019-05-14T23:31:08.471Z,99.90
2019-05-14T23:33:43.017Z,99.90
2019-05-14T23:36:18.190Z,99.90
2019-05-14T23:38:50.322Z,99.90
2019-05-14T23:41:23.038Z,99.90
2019-05-14T23:43:55.721Z,99.90
2019-05-14T23:46:29.172Z,99.90
2019-05-14T23:49:02.182Z,99.90
2019-05-14T23:51:34.838Z,99.90
2019-05-14T23:54:08.983Z,99.90
2019-05-14T23:56:45.844Z,99.90
2019-05-14T23:59:18.604Z,99.90
